sensor_id;sensor_type;location;lat;lon;timestamp;temperature;humidity
9544;DHT22;30418;51.45933468;7.33152330;2022-08-03T00:00:37;26.80;51.10
9544;DHT22;30418;51.45933468;7.33152330;2022-08-03T00:03:07;26.80;51.30
9544;DHT22;30418;51.45933468;7.33152330;2022-08-03T00:05:36;26.70;51.20
9544;DHT22;30418;51.45933468;7.33152330;2022-08-03T00:08:26;26.70;51.30
9544;DHT22;30418;51.45933468;7.33152330;2022-08-03T00:10:54;26.70;51.30
9544;DHT22;30418;51.45933468;7.33152330;2022-08-03T00:13:23;26.60;51.30
9544;DHT22;30418;51.45933468;7.33152330;2022-08-03T00:15:52;26.70;51.40
9544;DHT22;30418;51.45933468;7.33152330;2022-08-03T00:18:23;26.60;51.50
9544;DHT22;30418;51.45933468;7.33152330;2022-08-03T00:20:53;26.60;51.60
9544;DHT22;30418;51.45933468;7.33152330;2022-08-03T00:23:21;26.60;51.60
9544;DHT22;30418;51.45933468;7.33152330;2022-08-03T00:25:50;26.60;51.70
9544;DHT22;30418;51.45933468;7.33152330;2022-08-03T00:28:19;26.50;51.70
9544;DHT22;30418;51.45933468;7.33152330;2022-08-03T00:30:49;26.50;51.70
9544;DHT22;30418;51.45933468;7.33152330;2022-08-03T00:33:18;26.50;51.70
9544;DHT22;30418;51.45933468;7.33152330;2022-08-03T00:35:49;26.50;51.70
9544;DHT22;30418;51.45933468;7.33152330;2022-08-03T00:38:19;26.50;51.90
9544;DHT22;30418;51.45933468;7.33152330;2022-08-03T00:40:47;26.50;51.90
9544;DHT22;30418;51.45933468;7.33152330;2022-08-03T00:43:16;26.40;51.90
9544;DHT22;30418;51.45933468;7.33152330;2022-08-03T00:45:45;26.40;52.00
9544;DHT22;30418;51.45933468;7.33152330;2022-08-03T00:48:16;26.40;52.00
9544;DHT22;30418;51.45933468;7.33152330;2022-08-03T00:51:01;26.40;52.10
9544;DHT22;30418;51.45933468;7.33152330;2022-08-03T00:53:30;26.40;52.20
9544;DHT22;30418;51.45933468;7.33152330;2022-08-03T00:55:59;26.30;52.10
9544;DHT22;30418;51.45933468;7.33152330;2022-08-03T00:58:28;26.30;52.20
9544;DHT22;30418;51.45933468;7.33152330;2022-08-03T01:00:57;26.30;52.20
9544;DHT22;30418;51.45933468;7.33152330;2022-08-03T01:03:26;26.30;52.30
9544;DHT22;30418;51.45933468;7.33152330;2022-08-03T01:05:59;26.30;52.30
9544;DHT22;30418;51.45933468;7.33152330;2022-08-03T01:08:37;26.20;52.40
9544;DHT22;30418;51.45933468;7.33152330;2022-08-03T01:11:25;26.20;52.40
9544;DHT22;30418;51.45933468;7.33152330;2022-08-03T01:14:03;26.20;52.40
9544;DHT22;30418;51.45933468;7.33152330;2022-08-03T01:16:54;26.20;52.50
9544;DHT22;30418;51.45933468;7.33152330;2022-08-03T01:19:37;26.20;52.60
9544;DHT22;30418;51.45933468;7.33152330;2022-08-03T01:22:39;26.10;52.50
9544;DHT22;30418;51.45933468;7.33152330;2022-08-03T01:25:27;26.10;52.60
9544;DHT22;30418;51.45933468;7.33152330;2022-08-03T01:28:21;26.10;52.50
9544;DHT22;30418;51.45933468;7.33152330;2022-08-03T01:31:03;26.10;52.60
9544;DHT22;30418;51.45933468;7.33152330;2022-08-03T01:33:36;26.10;52.60
9544;DHT22;30418;51.45933468;7.33152330;2022-08-03T01:36:10;26.00;52.50
9544;DHT22;30418;51.45933468;7.33152330;2022-08-03T01:38:43;26.00;52.60
9544;DHT22;30418;51.45933468;7.33152330;2022-08-03T01:41:17;26.00;52.70
9544;DHT22;30418;51.45933468;7.33152330;2022-08-03T01:43:49;26.00;52.70
9544;DHT22;30418;51.45933468;7.33152330;2022-08-03T01:46:41;26.00;53.40
9544;DHT22;30418;51.45933468;7.33152330;2022-08-03T01:49:15;25.90;52.60
9544;DHT22;30418;51.45933468;7.33152330;2022-08-03T01:51:46;25.90;52.70
9544;DHT22;30418;51.45933468;7.33152330;2022-08-03T01:54:33;25.90;52.80
9544;DHT22;30418;51.45933468;7.33152330;2022-08-03T01:57:03;25.90;52.80
9544;DHT22;30418;51.45933468;7.33152330;2022-08-03T01:59:33;25.90;52.80
9544;DHT22;30418;51.45933468;7.33152330;2022-08-03T02:02:04;25.80;52.80
9544;DHT22;30418;51.45933468;7.33152330;2022-08-03T02:04:55;25.90;53.00
9544;DHT22;30418;51.45933468;7.33152330;2022-08-03T02:07:26;25.80;52.80
9544;DHT22;30418;51.45933468;7.33152330;2022-08-03T02:09:57;25.80;52.90
9544;DHT22;30418;51.45933468;7.33152330;2022-08-03T02:12:29;25.80;53.00
9544;DHT22;30418;51.45933468;7.33152330;2022-08-03T02:14:59;25.80;53.00
9544;DHT22;30418;51.45933468;7.33152330;2022-08-03T02:17:32;25.80;53.00
9544;DHT22;30418;51.45933468;7.33152330;2022-08-03T02:20:07;25.80;53.10
9544;DHT22;30418;51.45933468;7.33152330;2022-08-03T02:22:40;25.70;53.10
9544;DHT22;30418;51.45933468;7.33152330;2022-08-03T02:25:11;25.70;53.10
9544;DHT22;30418;51.45933468;7.33152330;2022-08-03T02:27:47;25.60;53.00
9544;DHT22;30418;51.45933468;7.33152330;2022-08-03T02:30:18;25.60;53.10
9544;DHT22;30418;51.45933468;7.33152330;2022-08-03T02:32:52;25.70;53.10
9544;DHT22;30418;51.45933468;7.33152330;2022-08-03T02:35:25;25.60;53.20
9544;DHT22;30418;51.45933468;7.33152330;2022-08-03T02:37:57;25.60;53.20
9544;DHT22;30418;51.45933468;7.33152330;2022-08-03T02:40:29;25.60;53.30
9544;DHT22;30418;51.45933468;7.33152330;2022-08-03T02:43:01;25.60;53.30
9544;DHT22;30418;51.45933468;7.33152330;2022-08-03T02:45:34;25.60;53.40
9544;DHT22;30418;51.45933468;7.33152330;2022-08-03T02:48:11;25.60;53.40
9544;DHT22;30418;51.45933468;7.33152330;2022-08-03T02:50:43;25.60;53.40
9544;DHT22;30418;51.45933468;7.33152330;2022-08-03T02:53:13;25.50;53.40
9544;DHT22;30418;51.45933468;7.33152330;2022-08-03T02:55:46;25.50;53.50
9544;DHT22;30418;51.45933468;7.33152330;2022-08-03T02:58:18;25.50;53.50
9544;DHT22;30418;51.45933468;7.33152330;2022-08-03T03:00:49;25.40;53.50
9544;DHT22;30418;51.45933468;7.33152330;2022-08-03T03:03:21;25.50;53.60
9544;DHT22;30418;51.45933468;7.33152330;2022-08-03T03:05:53;25.40;53.60
9544;DHT22;30418;51.45933468;7.33152330;2022-08-03T03:08:24;25.40;53.60
9544;DHT22;30418;51.45933468;7.33152330;2022-08-03T03:10:56;25.40;53.60
9544;DHT22;30418;51.45933468;7.33152330;2022-08-03T03:13:28;25.40;53.60
9544;DHT22;30418;51.45933468;7.33152330;2022-08-03T03:16:00;25.40;53.60
9544;DHT22;30418;51.45933468;7.33152330;2022-08-03T03:18:33;25.40;53.70
9544;DHT22;30418;51.45933468;7.33152330;2022-08-03T03:21:02;25.30;54.30
9544;DHT22;30418;51.45933468;7.33152330;2022-08-03T03:23:34;25.30;53.60
9544;DHT22;30418;51.45933468;7.33152330;2022-08-03T03:26:04;25.30;53.70
9544;DHT22;30418;51.45933468;7.33152330;2022-08-03T03:28:34;25.30;53.70
9544;DHT22;30418;51.45933468;7.33152330;2022-08-03T03:31:04;25.30;53.70
9544;DHT22;30418;51.45933468;7.33152330;2022-08-03T03:33:36;25.30;53.80
9544;DHT22;30418;51.45933468;7.33152330;2022-08-03T03:36:06;25.30;53.90
9544;DHT22;30418;51.45933468;7.33152330;2022-08-03T03:38:35;25.30;53.90
9544;DHT22;30418;51.45933468;7.33152330;2022-08-03T03:41:04;25.20;53.80
9544;DHT22;30418;51.45933468;7.33152330;2022-08-03T03:43:33;25.20;53.90
9544;DHT22;30418;51.45933468;7.33152330;2022-08-03T03:46:02;25.20;53.90
9544;DHT22;30418;51.45933468;7.33152330;2022-08-03T03:48:30;25.20;53.90
9544;DHT22;30418;51.45933468;7.33152330;2022-08-03T03:51:01;25.10;53.90
9544;DHT22;30418;51.45933468;7.33152330;2022-08-03T03:53:30;25.20;54.10
9544;DHT22;30418;51.45933468;7.33152330;2022-08-03T03:55:59;25.20;54.00
9544;DHT22;30418;51.45933468;7.33152330;2022-08-03T03:58:30;25.10;54.00
9544;DHT22;30418;51.45933468;7.33152330;2022-08-03T04:01:00;25.10;54.10
9544;DHT22;30418;51.45933468;7.33152330;2022-08-03T04:03:29;25.10;54.10
9544;DHT22;30418;51.45933468;7.33152330;2022-08-03T04:05:57;25.10;54.10
9544;DHT22;30418;51.45933468;7.33152330;2022-08-03T04:08:45;25.10;54.10
9544;DHT22;30418;51.45933468;7.33152330;2022-08-03T04:11:42;25.00;54.10
9544;DHT22;30418;51.45933468;7.33152330;2022-08-03T04:14:16;25.00;54.10
9544;DHT22;30418;51.45933468;7.33152330;2022-08-03T04:16:56;25.00;54.10
9544;DHT22;30418;51.45933468;7.33152330;2022-08-03T04:19:29;25.00;54.20
9544;DHT22;30418;51.45933468;7.33152330;2022-08-03T04:22:05;25.00;54.10
9544;DHT22;30418;51.45933468;7.33152330;2022-08-03T04:24:39;25.00;54.10
9544;DHT22;30418;51.45933468;7.33152330;2022-08-03T04:27:11;25.00;54.30
9544;DHT22;30418;51.45933468;7.33152330;2022-08-03T04:29:45;25.00;54.20
9544;DHT22;30418;51.45933468;7.33152330;2022-08-03T04:32:15;25.00;54.30
9544;DHT22;30418;51.45933468;7.33152330;2022-08-03T04:34:45;25.00;54.30
9544;DHT22;30418;51.45933468;7.33152330;2022-08-03T04:37:21;25.00;54.40
9544;DHT22;30418;51.45933468;7.33152330;2022-08-03T04:39:56;25.00;54.40
9544;DHT22;30418;51.45933468;7.33152330;2022-08-03T04:42:26;24.90;54.40
9544;DHT22;30418;51.45933468;7.33152330;2022-08-03T04:44:56;25.00;54.40
9544;DHT22;30418;51.45933468;7.33152330;2022-08-03T04:47:29;25.00;54.50
9544;DHT22;30418;51.45933468;7.33152330;2022-08-03T04:50:00;25.00;54.60
9544;DHT22;30418;51.45933468;7.33152330;2022-08-03T04:52:29;25.00;54.60
9544;DHT22;30418;51.45933468;7.33152330;2022-08-03T04:55:00;24.90;54.60
9544;DHT22;30418;51.45933468;7.33152330;2022-08-03T04:57:29;24.90;54.60
9544;DHT22;30418;51.45933468;7.33152330;2022-08-03T04:59:57;24.90;54.60
9544;DHT22;30418;51.45933468;7.33152330;2022-08-03T05:02:30;24.90;54.60
9544;DHT22;30418;51.45933468;7.33152330;2022-08-03T05:04:59;25.00;54.70
9544;DHT22;30418;51.45933468;7.33152330;2022-08-03T05:07:27;25.00;54.80
9544;DHT22;30418;51.45933468;7.33152330;2022-08-03T05:10:05;25.00;54.80
9544;DHT22;30418;51.45933468;7.33152330;2022-08-03T05:12:43;24.90;54.70
9544;DHT22;30418;51.45933468;7.33152330;2022-08-03T05:15:12;25.00;54.80
9544;DHT22;30418;51.45933468;7.33152330;2022-08-03T05:17:42;24.90;54.80
9544;DHT22;30418;51.45933468;7.33152330;2022-08-03T05:20:11;25.00;54.90
9544;DHT22;30418;51.45933468;7.33152330;2022-08-03T05:22:44;25.00;55.00
9544;DHT22;30418;51.45933468;7.33152330;2022-08-03T05:25:14;25.00;55.00
9544;DHT22;30418;51.45933468;7.33152330;2022-08-03T05:27:47;25.00;55.00
9544;DHT22;30418;51.45933468;7.33152330;2022-08-03T05:30:16;25.00;55.00
9544;DHT22;30418;51.45933468;7.33152330;2022-08-03T05:33:01;25.00;55.00
9544;DHT22;30418;51.45933468;7.33152330;2022-08-03T05:35:31;25.00;55.00
9544;DHT22;30418;51.45933468;7.33152330;2022-08-03T05:38:21;25.00;55.00
9544;DHT22;30418;51.45933468;7.33152330;2022-08-03T05:41:02;25.10;55.00
9544;DHT22;30418;51.45933468;7.33152330;2022-08-03T05:43:50;25.10;55.10
9544;DHT22;30418;51.45933468;7.33152330;2022-08-03T05:46:20;25.10;55.00
9544;DHT22;30418;51.45933468;7.33152330;2022-08-03T05:48:49;25.10;55.10
9544;DHT22;30418;51.45933468;7.33152330;2022-08-03T05:51:18;25.10;55.20
9544;DHT22;30418;51.45933468;7.33152330;2022-08-03T05:53:47;25.10;55.20
9544;DHT22;30418;51.45933468;7.33152330;2022-08-03T05:56:20;25.20;55.30
9544;DHT22;30418;51.45933468;7.33152330;2022-08-03T05:58:50;25.20;55.30
9544;DHT22;30418;51.45933468;7.33152330;2022-08-03T06:01:19;25.20;55.30
9544;DHT22;30418;51.45933468;7.33152330;2022-08-03T06:03:49;25.20;56.00
9544;DHT22;30418;51.45933468;7.33152330;2022-08-03T06:06:18;25.20;55.40
9544;DHT22;30418;51.45933468;7.33152330;2022-08-03T06:08:47;25.30;55.50
9544;DHT22;30418;51.45933468;7.33152330;2022-08-03T06:11:17;25.30;55.50
9544;DHT22;30418;51.45933468;7.33152330;2022-08-03T06:13:46;25.30;55.50
9544;DHT22;30418;51.45933468;7.33152330;2022-08-03T06:16:14;25.30;55.50
9544;DHT22;30418;51.45933468;7.33152330;2022-08-03T06:18:43;25.40;55.60
9544;DHT22;30418;51.45933468;7.33152330;2022-08-03T06:21:12;25.40;55.60
9544;DHT22;30418;51.45933468;7.33152330;2022-08-03T06:23:43;25.40;55.60
9544;DHT22;30418;51.45933468;7.33152330;2022-08-03T06:26:26;25.40;55.60
9544;DHT22;30418;51.45933468;7.33152330;2022-08-03T06:28:55;25.40;55.60
9544;DHT22;30418;51.45933468;7.33152330;2022-08-03T06:31:26;25.40;55.50
9544;DHT22;30418;51.45933468;7.33152330;2022-08-03T06:34:01;25.50;55.50
9544;DHT22;30418;51.45933468;7.33152330;2022-08-03T06:36:50;25.50;55.50
9544;DHT22;30418;51.45933468;7.33152330;2022-08-03T06:39:28;25.60;55.50
9544;DHT22;30418;51.45933468;7.33152330;2022-08-03T06:41:58;25.60;55.40
9544;DHT22;30418;51.45933468;7.33152330;2022-08-03T06:44:26;25.60;55.50
9544;DHT22;30418;51.45933468;7.33152330;2022-08-03T06:46:55;25.60;56.10
9544;DHT22;30418;51.45933468;7.33152330;2022-08-03T06:49:24;25.70;55.40
9544;DHT22;30418;51.45933468;7.33152330;2022-08-03T06:51:53;25.70;55.40
9544;DHT22;30418;51.45933468;7.33152330;2022-08-03T06:54:33;25.70;55.40
9544;DHT22;30418;51.45933468;7.33152330;2022-08-03T06:57:05;25.80;55.30
9544;DHT22;30418;51.45933468;7.33152330;2022-08-03T06:59:35;25.80;55.30
9544;DHT22;30418;51.45933468;7.33152330;2022-08-03T07:02:24;25.90;55.20
9544;DHT22;30418;51.45933468;7.33152330;2022-08-03T07:04:55;25.90;55.20
9544;DHT22;30418;51.45933468;7.33152330;2022-08-03T07:07:24;25.90;55.20
9544;DHT22;30418;51.45933468;7.33152330;2022-08-03T07:09:53;25.90;55.20
9544;DHT22;30418;51.45933468;7.33152330;2022-08-03T07:12:27;26.00;55.20
9544;DHT22;30418;51.45933468;7.33152330;2022-08-03T07:14:57;26.00;55.00
9544;DHT22;30418;51.45933468;7.33152330;2022-08-03T07:17:29;26.10;55.10
9544;DHT22;30418;51.45933468;7.33152330;2022-08-03T07:20:00;26.10;55.00
9544;DHT22;30418;51.45933468;7.33152330;2022-08-03T07:22:31;26.20;55.00
9544;DHT22;30418;51.45933468;7.33152330;2022-08-03T07:24:59;26.20;54.90
9544;DHT22;30418;51.45933468;7.33152330;2022-08-03T07:27:29;26.30;55.00
9544;DHT22;30418;51.45933468;7.33152330;2022-08-03T07:29:58;26.30;54.90
9544;DHT22;30418;51.45933468;7.33152330;2022-08-03T07:32:27;26.40;54.90
9544;DHT22;30418;51.45933468;7.33152330;2022-08-03T07:34:57;26.40;54.90
9544;DHT22;30418;51.45933468;7.33152330;2022-08-03T07:37:28;26.40;54.90
9544;DHT22;30418;51.45933468;7.33152330;2022-08-03T07:39:57;26.50;55.00
9544;DHT22;30418;51.45933468;7.33152330;2022-08-03T07:42:26;26.50;55.00
9544;DHT22;30418;51.45933468;7.33152330;2022-08-03T07:44:57;26.60;54.90
9544;DHT22;30418;51.45933468;7.33152330;2022-08-03T07:47:28;26.60;54.70
9544;DHT22;30418;51.45933468;7.33152330;2022-08-03T07:50:04;26.70;54.60
9544;DHT22;30418;51.45933468;7.33152330;2022-08-03T07:52:35;26.80;54.70
9544;DHT22;30418;51.45933468;7.33152330;2022-08-03T07:55:16;26.80;54.60
9544;DHT22;30418;51.45933468;7.33152330;2022-08-03T07:57:51;26.90;54.40
9544;DHT22;30418;51.45933468;7.33152330;2022-08-03T08:00:26;26.90;54.20
9544;DHT22;30418;51.45933468;7.33152330;2022-08-03T08:02:55;27.00;54.20
9544;DHT22;30418;51.45933468;7.33152330;2022-08-03T08:05:24;27.10;54.30
9544;DHT22;30418;51.45933468;7.33152330;2022-08-03T08:07:53;27.20;54.20
9544;DHT22;30418;51.45933468;7.33152330;2022-08-03T08:10:22;27.20;54.00
9544;DHT22;30418;51.45933468;7.33152330;2022-08-03T08:12:52;27.30;53.90
9544;DHT22;30418;51.45933468;7.33152330;2022-08-03T08:15:21;27.40;53.80
9544;DHT22;30418;51.45933468;7.33152330;2022-08-03T08:17:51;27.50;53.80
9544;DHT22;30418;51.45933468;7.33152330;2022-08-03T08:20:23;27.60;53.60
9544;DHT22;30418;51.45933468;7.33152330;2022-08-03T08:22:55;27.60;53.20
9544;DHT22;30418;51.45933468;7.33152330;2022-08-03T08:25:28;27.70;53.30
9544;DHT22;30418;51.45933468;7.33152330;2022-08-03T08:27:59;27.80;53.20
9544;DHT22;30418;51.45933468;7.33152330;2022-08-03T08:30:49;27.90;53.10
9544;DHT22;30418;51.45933468;7.33152330;2022-08-03T08:33:18;28.00;53.10
9544;DHT22;30418;51.45933468;7.33152330;2022-08-03T08:35:48;28.10;52.80
9544;DHT22;30418;51.45933468;7.33152330;2022-08-03T08:38:17;28.20;52.70
9544;DHT22;30418;51.45933468;7.33152330;2022-08-03T08:40:49;28.20;52.50
9544;DHT22;30418;51.45933468;7.33152330;2022-08-03T08:43:20;28.30;52.30
9544;DHT22;30418;51.45933468;7.33152330;2022-08-03T08:45:49;28.40;52.40
9544;DHT22;30418;51.45933468;7.33152330;2022-08-03T08:48:22;28.40;52.20
9544;DHT22;30418;51.45933468;7.33152330;2022-08-03T08:50:53;28.50;52.10
9544;DHT22;30418;51.45933468;7.33152330;2022-08-03T08:53:25;28.60;52.80
9544;DHT22;30418;51.45933468;7.33152330;2022-08-03T08:55:58;28.60;52.00
9544;DHT22;30418;51.45933468;7.33152330;2022-08-03T08:58:35;28.70;51.80
9544;DHT22;30418;51.45933468;7.33152330;2022-08-03T09:01:05;28.80;51.40
9544;DHT22;30418;51.45933468;7.33152330;2022-08-03T09:03:34;28.90;51.50
9544;DHT22;30418;51.45933468;7.33152330;2022-08-03T09:06:03;28.90;51.50
9544;DHT22;30418;51.45933468;7.33152330;2022-08-03T09:08:33;29.00;51.50
9544;DHT22;30418;51.45933468;7.33152330;2022-08-03T09:11:02;29.10;51.30
9544;DHT22;30418;51.45933468;7.33152330;2022-08-03T09:13:32;29.10;51.20
9544;DHT22;30418;51.45933468;7.33152330;2022-08-03T09:16:15;29.20;51.20
9544;DHT22;30418;51.45933468;7.33152330;2022-08-03T09:18:46;29.30;50.70
9544;DHT22;30418;51.45933468;7.33152330;2022-08-03T09:21:21;29.40;51.00
9544;DHT22;30418;51.45933468;7.33152330;2022-08-03T09:24:02;29.40;50.70
9544;DHT22;30418;51.45933468;7.33152330;2022-08-03T09:26:49;29.50;50.60
9544;DHT22;30418;51.45933468;7.33152330;2022-08-03T09:29:21;29.60;50.30
9544;DHT22;30418;51.45933468;7.33152330;2022-08-03T09:32:00;29.60;50.40
9544;DHT22;30418;51.45933468;7.33152330;2022-08-03T09:34:30;29.70;50.00
9544;DHT22;30418;51.45933468;7.33152330;2022-08-03T09:36:59;29.70;50.20
9544;DHT22;30418;51.45933468;7.33152330;2022-08-03T09:39:28;29.90;50.10
9544;DHT22;30418;51.45933468;7.33152330;2022-08-03T09:42:09;29.90;49.80
9544;DHT22;30418;51.45933468;7.33152330;2022-08-03T09:44:44;30.00;49.80
9544;DHT22;30418;51.45933468;7.33152330;2022-08-03T09:47:14;30.00;49.70
9544;DHT22;30418;51.45933468;7.33152330;2022-08-03T09:49:56;30.10;49.60
9544;DHT22;30418;51.45933468;7.33152330;2022-08-03T09:52:32;30.10;49.20
9544;DHT22;30418;51.45933468;7.33152330;2022-08-03T09:55:17;30.20;49.40
9544;DHT22;30418;51.45933468;7.33152330;2022-08-03T09:58:09;30.30;49.20
9544;DHT22;30418;51.45933468;7.33152330;2022-08-03T10:00:54;30.30;49.00
9544;DHT22;30418;51.45933468;7.33152330;2022-08-03T10:03:25;30.40;48.60
9544;DHT22;30418;51.45933468;7.33152330;2022-08-03T10:05:56;30.50;48.80
9544;DHT22;30418;51.45933468;7.33152330;2022-08-03T10:08:26;30.50;48.60
9544;DHT22;30418;51.45933468;7.33152330;2022-08-03T10:10:55;30.60;48.60
9544;DHT22;30418;51.45933468;7.33152330;2022-08-03T10:13:24;30.60;48.40
9544;DHT22;30418;51.45933468;7.33152330;2022-08-03T10:15:54;30.70;48.30
9544;DHT22;30418;51.45933468;7.33152330;2022-08-03T10:18:43;30.70;48.00
9544;DHT22;30418;51.45933468;7.33152330;2022-08-03T10:21:15;30.80;48.10
9544;DHT22;30418;51.45933468;7.33152330;2022-08-03T10:23:45;30.80;47.60
9544;DHT22;30418;51.45933468;7.33152330;2022-08-03T10:26:17;30.90;47.90
9544;DHT22;30418;51.45933468;7.33152330;2022-08-03T10:28:52;30.90;47.60
9544;DHT22;30418;51.45933468;7.33152330;2022-08-03T10:31:23;31.00;47.60
9544;DHT22;30418;51.45933468;7.33152330;2022-08-03T10:33:55;31.10;47.30
9544;DHT22;30418;51.45933468;7.33152330;2022-08-03T10:36:26;31.10;47.20
9544;DHT22;30418;51.45933468;7.33152330;2022-08-03T10:38:59;31.20;47.00
9544;DHT22;30418;51.45933468;7.33152330;2022-08-03T10:41:42;31.20;46.90
9544;DHT22;30418;51.45933468;7.33152330;2022-08-03T10:44:17;31.20;46.70
9544;DHT22;30418;51.45933468;7.33152330;2022-08-03T10:46:48;31.30;46.60
9544;DHT22;30418;51.45933468;7.33152330;2022-08-03T10:49:18;31.30;46.40
9544;DHT22;30418;51.45933468;7.33152330;2022-08-03T10:52:01;31.40;46.40
9544;DHT22;30418;51.45933468;7.33152330;2022-08-03T10:54:51;31.40;46.40
9544;DHT22;30418;51.45933468;7.33152330;2022-08-03T10:57:49;31.50;46.40
9544;DHT22;30418;51.45933468;7.33152330;2022-08-03T11:00:26;31.50;45.90
9544;DHT22;30418;51.45933468;7.33152330;2022-08-03T11:03:08;31.60;46.30
9544;DHT22;30418;51.45933468;7.33152330;2022-08-03T11:05:40;31.60;45.70
9544;DHT22;30418;51.45933468;7.33152330;2022-08-03T11:08:34;31.60;45.90
9544;DHT22;30418;51.45933468;7.33152330;2022-08-03T11:11:25;31.60;45.50
9544;DHT22;30418;51.45933468;7.33152330;2022-08-03T11:13:57;31.70;45.40
9544;DHT22;30418;51.45933468;7.33152330;2022-08-03T11:16:27;31.70;45.80
9544;DHT22;30418;51.45933468;7.33152330;2022-08-03T11:18:59;31.80;45.80
9544;DHT22;30418;51.45933468;7.33152330;2022-08-03T11:21:52;31.80;45.40
9544;DHT22;30418;51.45933468;7.33152330;2022-08-03T11:24:59;31.80;45.30
9544;DHT22;30418;51.45933468;7.33152330;2022-08-03T11:27:30;31.90;45.50
9544;DHT22;30418;51.45933468;7.33152330;2022-08-03T11:30:03;31.90;45.60
9544;DHT22;30418;51.45933468;7.33152330;2022-08-03T11:32:53;31.90;45.60
9544;DHT22;30418;51.45933468;7.33152330;2022-08-03T11:35:27;32.00;45.10
9544;DHT22;30418;51.45933468;7.33152330;2022-08-03T11:38:10;32.00;45.20
9544;DHT22;30418;51.45933468;7.33152330;2022-08-03T11:40:41;32.10;45.00
9544;DHT22;30418;51.45933468;7.33152330;2022-08-03T11:46:13;32.20;44.90
9544;DHT22;30418;51.45933468;7.33152330;2022-08-03T11:49:03;32.20;45.00
9544;DHT22;30418;51.45933468;7.33152330;2022-08-03T11:51:39;32.20;44.70
9544;DHT22;30418;51.45933468;7.33152330;2022-08-03T11:54:08;32.30;45.30
9544;DHT22;30418;51.45933468;7.33152330;2022-08-03T11:56:45;32.30;44.80
9544;DHT22;30418;51.45933468;7.33152330;2022-08-03T11:59:15;32.30;44.30
9544;DHT22;30418;51.45933468;7.33152330;2022-08-03T12:01:48;32.30;44.60
9544;DHT22;30418;51.45933468;7.33152330;2022-08-03T12:04:17;32.40;44.70
9544;DHT22;30418;51.45933468;7.33152330;2022-08-03T12:07:00;32.40;44.50
9544;DHT22;30418;51.45933468;7.33152330;2022-08-03T12:09:29;32.50;44.20
9544;DHT22;30418;51.45933468;7.33152330;2022-08-03T12:12:00;32.50;44.40
9544;DHT22;30418;51.45933468;7.33152330;2022-08-03T12:14:29;32.60;44.30
9544;DHT22;30418;51.45933468;7.33152330;2022-08-03T12:17:17;32.60;44.20
9544;DHT22;30418;51.45933468;7.33152330;2022-08-03T12:19:47;32.60;44.10
9544;DHT22;30418;51.45933468;7.33152330;2022-08-03T12:22:30;32.60;44.00
9544;DHT22;30418;51.45933468;7.33152330;2022-08-03T12:24:59;32.70;43.40
9544;DHT22;30418;51.45933468;7.33152330;2022-08-03T12:27:27;32.80;43.80
9544;DHT22;30418;51.45933468;7.33152330;2022-08-03T12:29:58;32.80;43.60
9544;DHT22;30418;51.45933468;7.33152330;2022-08-03T12:32:28;32.80;43.90
9544;DHT22;30418;51.45933468;7.33152330;2022-08-03T12:34:57;32.80;43.50
9544;DHT22;30418;51.45933468;7.33152330;2022-08-03T12:37:29;32.90;43.60
9544;DHT22;30418;51.45933468;7.33152330;2022-08-03T12:39:59;33.00;43.60
9544;DHT22;30418;51.45933468;7.33152330;2022-08-03T12:42:38;33.00;43.60
9544;DHT22;30418;51.45933468;7.33152330;2022-08-03T12:45:21;33.00;43.50
9544;DHT22;30418;51.45933468;7.33152330;2022-08-03T12:47:52;33.00;43.30
9544;DHT22;30418;51.45933468;7.33152330;2022-08-03T12:50:26;33.10;43.70
9544;DHT22;30418;51.45933468;7.33152330;2022-08-03T12:52:59;33.20;43.40
9544;DHT22;30418;51.45933468;7.33152330;2022-08-03T12:55:31;33.20;43.50
9544;DHT22;30418;51.45933468;7.33152330;2022-08-03T12:58:30;33.20;43.40
9544;DHT22;30418;51.45933468;7.33152330;2022-08-03T13:01:02;33.30;42.60
9544;DHT22;30418;51.45933468;7.33152330;2022-08-03T13:03:40;33.40;43.00
9544;DHT22;30418;51.45933468;7.33152330;2022-08-03T13:06:16;33.40;42.50
9544;DHT22;30418;51.45933468;7.33152330;2022-08-03T13:08:48;33.40;42.60
9544;DHT22;30418;51.45933468;7.33152330;2022-08-03T13:11:19;33.50;42.50
9544;DHT22;30418;51.45933468;7.33152330;2022-08-03T13:13:49;33.50;43.00
9544;DHT22;30418;51.45933468;7.33152330;2022-08-03T13:16:17;33.50;42.20
9544;DHT22;30418;51.45933468;7.33152330;2022-08-03T13:18:48;33.60;42.20
9544;DHT22;30418;51.45933468;7.33152330;2022-08-03T13:21:19;33.60;42.20
9544;DHT22;30418;51.45933468;7.33152330;2022-08-03T13:23:49;33.70;42.20
9544;DHT22;30418;51.45933468;7.33152330;2022-08-03T13:26:18;33.70;42.10
9544;DHT22;30418;51.45933468;7.33152330;2022-08-03T13:28:46;33.80;42.40
9544;DHT22;30418;51.45933468;7.33152330;2022-08-03T13:31:15;33.80;41.80
9544;DHT22;30418;51.45933468;7.33152330;2022-08-03T13:33:45;33.80;41.80
9544;DHT22;30418;51.45933468;7.33152330;2022-08-03T13:36:14;33.90;41.70
9544;DHT22;30418;51.45933468;7.33152330;2022-08-03T13:38:43;33.90;41.70
9544;DHT22;30418;51.45933468;7.33152330;2022-08-03T13:41:14;33.90;41.50
9544;DHT22;30418;51.45933468;7.33152330;2022-08-03T13:43:43;33.90;41.50
9544;DHT22;30418;51.45933468;7.33152330;2022-08-03T13:46:12;33.90;41.40
9544;DHT22;30418;51.45933468;7.33152330;2022-08-03T13:48:41;33.90;41.30
9544;DHT22;30418;51.45933468;7.33152330;2022-08-03T13:51:10;34.00;41.30
9544;DHT22;30418;51.45933468;7.33152330;2022-08-03T13:53:49;34.00;41.00
9544;DHT22;30418;51.45933468;7.33152330;2022-08-03T13:56:20;34.10;41.10
9544;DHT22;30418;51.45933468;7.33152330;2022-08-03T13:58:49;34.10;41.60
9544;DHT22;30418;51.45933468;7.33152330;2022-08-03T14:01:17;34.10;41.10
9544;DHT22;30418;51.45933468;7.33152330;2022-08-03T14:04:06;34.20;41.00
9544;DHT22;30418;51.45933468;7.33152330;2022-08-03T14:06:47;34.20;40.80
9544;DHT22;30418;51.45933468;7.33152330;2022-08-03T14:09:16;34.30;40.90
9544;DHT22;30418;51.45933468;7.33152330;2022-08-03T14:11:46;34.30;40.90